Time;durP1;ratioP1;P1;durP2;ratioP2;P2;SDS_P1;SDS_P2;PMS_P1;PMS_P2;Temp;Humidity;BMP_temperature;BMP_pressure;BME280_temperature;BME280_humidity;BME280_pressure;Samples;Min_cycle;Max_cycle;Signal;HPM_P1;HPM_P2
2022/11/16 00:01:07;;;;;;;3.95;3.53;;;14.40;99.90;;;;;;5036043;28;20607;-90
2022/11/16 00:03:33;;;;;;;5.90;4.05;;;14.40;99.90;;;;;;5034954;28;20578;-93
2022/11/16 00:06:01;;;;;;;4.43;4.03;;;14.50;99.90;;;;;;5036085;28;20275;-92
2022/11/16 00:08:32;;;;;;;4.40;3.88;;;14.50;99.90;;;;;;5035871;28;20191;-93
2022/11/16 00:11:12;;;;;;;7.85;3.60;;;14.70;99.90;;;;;;5035913;28;20215;-93
2022/11/16 00:13:39;;;;;;;7.40;3.67;;;14.70;99.90;;;;;;5034955;28;20160;-93
2022/11/16 00:16:06;;;;;;;5.85;3.22;;;14.50;99.90;;;;;;5035637;28;20171;-93
2022/11/16 00:18:32;;;;;;;4.00;3.70;;;14.40;99.90;;;;;;5035501;28;20184;-92
2022/11/16 00:20:57;;;;;;;4.18;3.88;;;14.40;99.90;;;;;;5034500;28;20170;-93
2022/11/16 00:23:23;;;;;;;4.03;3.72;;;14.30;99.90;;;;;;5035820;28;20218;-92
2022/11/16 00:25:49;;;;;;;5.63;4.57;;;14.40;99.90;;;;;;5035779;28;20587;-81
2022/11/16 00:28:15;;;;;;;6.68;4.85;;;14.40;99.90;;;;;;5035340;28;20188;-92
2022/11/16 00:30:40;;;;;;;6.07;4.60;;;14.50;99.90;;;;;;5035193;28;20210;-87
2022/11/16 00:33:07;;;;;;;6.13;4.78;;;14.50;99.90;;;;;;5034948;28;20218;-91
2022/11/16 00:35:38;;;;;;;4.18;3.80;;;14.40;99.90;;;;;;5034985;28;20667;-92
2022/11/16 00:38:04;;;;;;;8.35;4.25;;;14.30;99.90;;;;;;5034861;28;20183;-92
2022/11/16 00:40:29;;;;;;;4.40;3.85;;;14.30;99.90;;;;;;5034859;28;20215;-92
2022/11/16 00:42:55;;;;;;;6.82;3.95;;;14.20;99.90;;;;;;5034929;28;20532;-93
2022/11/16 00:45:20;;;;;;;8.38;3.60;;;14.10;99.90;;;;;;5034961;28;20244;-91
2022/11/16 00:47:46;;;;;;;5.72;3.22;;;14.00;99.90;;;;;;5034880;28;20199;-93
2022/11/16 00:50:12;;;;;;;4.80;3.90;;;13.90;99.90;;;;;;5034831;28;20196;-92
2022/11/16 00:52:37;;;;;;;8.77;3.65;;;13.70;99.90;;;;;;5035099;28;20642;-92
2022/11/16 00:55:03;;;;;;;4.35;3.50;;;13.60;99.90;;;;;;5035041;28;20168;-89
2022/11/16 00:57:29;;;;;;;6.30;4.20;;;13.60;99.90;;;;;;5034726;28;20244;-80
2022/11/16 00:59:54;;;;;;;5.20;3.92;;;13.60;99.90;;;;;;5035153;28;20206;-92
2022/11/16 01:02:21;;;;;;;5.35;3.85;;;13.50;99.90;;;;;;5034884;28;20651;-92
2022/11/16 01:04:47;;;;;;;4.93;4.35;;;13.50;99.90;;;;;;5034523;28;20203;-87
2022/11/16 01:07:12;;;;;;;3.67;3.38;;;13.70;99.90;;;;;;5034975;28;20170;-91
2022/11/16 01:09:38;;;;;;;3.63;3.30;;;13.80;99.90;;;;;;5033035;28;20196;-93
2022/11/16 01:12:11;;;;;;;3.92;3.53;;;13.70;99.90;;;;;;5034523;28;20172;-92
2022/11/16 01:14:38;;;;;;;3.75;3.40;;;13.70;99.90;;;;;;5033327;28;20266;-91
2022/11/16 01:17:04;;;;;;;6.05;3.20;;;13.60;99.90;;;;;;5034525;28;20223;-91
2022/11/16 01:19:30;;;;;;;4.80;3.38;;;13.70;99.90;;;;;;5034666;28;20188;-91
2022/11/16 01:21:56;;;;;;;5.10;3.35;;;13.60;99.90;;;;;;5034766;28;20275;-93
2022/11/16 01:24:23;;;;;;;4.10;2.97;;;13.70;99.90;;;;;;5034559;28;20183;-92
2022/11/16 01:26:48;;;;;;;6.43;2.83;;;13.70;99.90;;;;;;5034322;28;20181;-91
2022/11/16 01:29:14;;;;;;;3.65;3.33;;;13.80;99.90;;;;;;5033968;28;20548;-90
2022/11/16 01:31:39;;;;;;;10.32;3.30;;;13.90;99.90;;;;;;5034139;28;20176;-89
2022/11/16 01:34:05;;;;;;;7.53;3.30;;;14.00;99.90;;;;;;5034203;28;20170;-79
2022/11/16 01:36:30;;;;;;;2.97;2.67;;;14.00;99.90;;;;;;5033010;28;20168;-79
2022/11/16 01:38:56;;;;;;;5.10;3.10;;;13.90;99.90;;;;;;5034271;28;20215;-80
2022/11/16 01:41:24;;;;;;;3.05;2.75;;;13.90;99.90;;;;;;5034021;28;20258;-83
2022/11/16 01:43:52;;;;;;;7.18;4.30;;;13.90;99.90;;;;;;5033898;28;20172;-93
2022/11/16 01:46:18;;;;;;;7.03;3.63;;;13.90;99.90;;;;;;5033744;28;20608;-90
2022/11/16 01:48:45;;;;;;;4.40;3.30;;;13.80;99.90;;;;;;5033951;28;20196;-82
2022/11/16 01:51:11;;;;;;;4.60;2.63;;;13.50;99.90;;;;;;5034166;28;20172;-82
2022/11/16 01:53:37;;;;;;;7.22;2.53;;;13.50;99.90;;;;;;5033773;28;20167;-79
2022/11/16 01:56:03;;;;;;;2.95;1.98;;;13.50;99.90;;;;;;5017946;28;20172;-92
2022/11/16 01:58:29;;;;;;;5.30;2.65;;;13.30;99.90;;;;;;5013658;28;20207;-95
2022/11/16 02:00:55;;;;;;;3.92;2.58;;;13.40;99.90;;;;;;5013741;28;20981;-94
2022/11/16 02:03:21;;;;;;;3.15;1.95;;;13.40;99.90;;;;;;5013885;28;20544;-93
2022/11/16 02:06:15;;;;;;;4.07;2.30;;;13.40;99.90;;;;;;5013571;28;20207;-92
2022/11/16 02:12:28;;;;;;;6.18;2.33;;;13.40;99.90;;;;;;5014048;28;20973;-79
2022/11/16 02:14:56;;;;;;;8.45;3.03;;;13.40;99.90;;;;;;5005061;28;20568;-91
2022/11/16 02:17:59;;;;;;;5.40;1.52;;;13.40;99.90;;;;;;5014245;28;20211;-86
2022/11/16 02:20:27;;;;;;;11.88;2.28;;;13.30;99.90;;;;;;5013720;28;20176;-92
2022/11/16 02:23:38;;;;;;;4.93;2.40;;;13.30;99.90;;;;;;5013936;28;20175;-92
2022/11/16 02:26:12;;;;;;;2.30;1.70;;;13.40;99.90;;;;;;5012291;28;20216;-93
2022/11/16 02:29:04;;;;;;;4.22;1.98;;;13.20;99.90;;;;;;5013453;28;20258;-90
2022/11/16 02:31:37;;;;;;;5.75;2.10;;;13.30;99.90;;;;;;5013221;28;20180;-92
2022/11/16 02:34:06;;;;;;;6.63;2.38;;;13.40;99.90;;;;;;5012632;28;20164;-91
2022/11/16 02:36:34;;;;;;;2.45;2.10;;;13.40;99.90;;;;;;5015658;28;20169;-92
2022/11/16 02:39:07;;;;;;;3.50;1.75;;;13.40;99.90;;;;;;5017468;28;20257;-93
2022/11/16 02:41:37;;;;;;;7.13;2.20;;;13.30;99.90;;;;;;5017221;28;20169;-92
2022/11/16 02:44:11;;;;;;;3.55;2.35;;;13.30;99.90;;;;;;5017843;28;20637;-78
2022/11/16 02:46:45;;;;;;;4.68;2.58;;;13.20;99.90;;;;;;5016621;28;20641;-93
2022/11/16 02:49:16;;;;;;;3.50;2.22;;;13.10;99.90;;;;;;5017158;28;20287;-93
2022/11/16 02:51:43;;;;;;;4.20;2.50;;;13.00;99.90;;;;;;5017489;28;20222;-78
2022/11/16 02:54:14;;;;;;;3.35;2.58;;;12.80;99.90;;;;;;5016827;28;20169;-92
2022/11/16 02:57:02;;;;;;;5.45;2.30;;;12.80;99.90;;;;;;5017048;28;20250;-92
2022/11/16 02:59:44;;;;;;;3.60;2.30;;;12.70;99.90;;;;;;5007108;28;20205;-93
2022/11/16 03:02:42;;;;;;;6.82;2.95;;;12.70;99.90;;;;;;5015861;28;20263;-87
2022/11/16 03:05:16;;;;;;;8.50;2.58;;;12.80;99.90;;;;;;5013998;28;20656;-93
2022/11/16 03:07:50;;;;;;;4.50;3.00;;;12.80;99.90;;;;;;5017299;28;20168;-86
2022/11/16 03:13:14;;;;;;;4.20;2.88;;;12.80;99.90;;;;;;5024015;28;20185;-89
2022/11/16 03:15:41;;;;;;;7.50;2.33;;;12.90;99.90;;;;;;5017598;28;20168;-91
2022/11/16 03:18:08;;;;;;;5.50;1.95;;;12.90;99.90;;;;;;5016999;28;20169;-86
2022/11/16 03:20:36;;;;;;;11.38;2.72;;;12.80;99.90;;;;;;5016751;28;20175;-80
2022/11/16 03:23:07;;;;;;;5.22;2.00;;;12.80;99.90;;;;;;5016789;28;20276;-93
2022/11/16 03:25:42;;;;;;;7.13;1.95;;;12.80;99.90;;;;;;5016684;28;20214;-93
2022/11/16 03:28:35;;;;;;;14.95;2.28;;;13.00;99.90;;;;;;5016875;28;20168;-92
2022/11/16 03:31:10;;;;;;;7.60;2.22;;;12.80;99.90;;;;;;5017099;28;20169;-84
2022/11/16 03:33:49;;;;;;;4.75;2.00;;;12.80;99.90;;;;;;5020931;28;20176;-90
2022/11/16 03:36:34;;;;;;;9.93;2.13;;;12.80;99.90;;;;;;5019916;28;20164;-81
2022/11/16 03:39:09;;;;;;;6.68;1.40;;;12.80;99.90;;;;;;5024763;28;20207;-89
2022/11/16 03:41:39;;;;;;;2.45;1.38;;;12.60;99.90;;;;;;5019905;28;20192;-92
2022/11/16 03:44:07;;;;;;;6.05;2.30;;;12.30;99.90;;;;;;5018926;28;20617;-92
2022/11/16 03:46:33;;;;;;;6.68;2.50;;;12.30;99.90;;;;;;5018750;28;20227;-90
2022/11/16 03:49:00;;;;;;;5.13;1.90;;;12.30;99.90;;;;;;5021395;28;20196;-93
2022/11/16 03:51:26;;;;;;;6.82;2.40;;;12.20;99.90;;;;;;5022426;28;20660;-80
2022/11/16 03:53:51;;;;;;;5.75;2.20;;;12.10;99.90;;;;;;5022312;28;20319;-80
2022/11/16 03:56:17;;;;;;;5.72;2.45;;;12.20;99.90;;;;;;5025819;28;20165;-92
2022/11/16 03:58:42;;;;;;;4.55;2.20;;;12.10;99.90;;;;;;5025016;28;20183;-91
2022/11/16 04:01:08;;;;;;;6.28;2.00;;;12.10;99.90;;;;;;5025660;28;20177;-89
2022/11/16 04:03:34;;;;;;;4.63;1.83;;;12.10;99.90;;;;;;5024073;28;20663;-92
2022/11/16 04:25:30;;;;;;;3.95;2.05;;;11.80;99.90;;;;;;5016162;28;20629;-92
2022/11/16 04:39:10;;;;;;;5.40;3.28;;;11.60;99.90;;;;;;5015430;28;20204;-91
2022/11/16 04:44:20;;;;;;;5.25;2.53;;;11.50;99.90;;;;;;5015818;28;20612;-92
2022/11/16 04:49:30;;;;;;;5.22;2.53;;;11.50;99.90;;;;;;5015385;28;20285;-93
2022/11/16 04:51:56;;;;;;;9.45;2.60;;;11.50;99.90;;;;;;5015492;28;20200;-92
2022/11/16 04:54:21;;;;;;;8.45;2.78;;;11.40;99.90;;;;;;5015037;28;20531;-92
2022/11/16 04:56:47;;;;;;;6.05;2.70;;;11.50;99.90;;;;;;5014204;28;20203;-92
2022/11/16 04:59:12;;;;;;;14.77;3.33;;;11.30;99.90;;;;;;5015531;28;20667;-90
2022/11/16 05:04:22;;;;;;;9.75;2.70;;;11.30;99.90;;;;;;5014900;28;20227;-91
2022/11/16 05:06:48;;;;;;;6.55;2.70;;;11.10;99.90;;;;;;5016215;28;20180;-92
2022/11/16 05:09:13;;;;;;;10.77;3.30;;;11.20;99.90;;;;;;5015331;28;20192;-92
2022/11/16 05:11:39;;;;;;;11.73;2.97;;;11.30;99.90;;;;;;5015190;28;20183;-83
2022/11/16 05:14:05;;;;;;;12.88;3.00;;;11.20;99.90;;;;;;5015265;28;20169;-89
2022/11/16 05:16:32;;;;;;;7.50;2.50;;;11.20;99.90;;;;;;5014281;28;20263;-90
2022/11/16 05:21:42;;;;;;;10.38;2.85;;;11.10;99.90;;;;;;5015289;28;20179;-89
2022/11/16 05:26:52;;;;;;;17.85;2.60;;;10.90;99.90;;;;;;5014159;28;20188;-84
2022/11/16 05:29:17;;;;;;;5.30;1.95;;;10.90;99.90;;;;;;5014662;28;20839;-92
2022/11/16 05:31:43;;;;;;;6.53;2.17;;;11.00;99.90;;;;;;5014363;28;20664;-88
2022/11/16 05:34:09;;;;;;;13.10;3.38;;;10.90;99.90;;;;;;5014209;28;20168;-92
2022/11/16 05:36:34;;;;;;;7.10;2.15;;;10.90;99.90;;;;;;5014502;28;20179;-90
2022/11/16 05:39:00;;;;;;;12.23;2.67;;;10.80;99.90;;;;;;5014157;28;20203;-86
2022/11/16 05:41:26;;;;;;;14.95;2.20;;;10.70;99.90;;;;;;5014243;28;20524;-87
2022/11/16 05:43:53;;;;;;;11.23;1.83;;;10.80;99.90;;;;;;5013533;28;20176;-92
2022/11/16 05:46:19;;;;;;;8.93;1.98;;;10.80;99.90;;;;;;5013238;28;20209;-84
2022/11/16 05:48:45;;;;;;;20.73;2.55;;;11.00;99.90;;;;;;5013135;28;20199;-80
2022/11/16 05:51:11;;;;;;;15.05;2.30;;;11.00;99.90;;;;;;5013785;28;20168;-90
2022/11/16 05:53:36;;;;;;;6.75;2.40;;;11.00;99.90;;;;;;5014257;28;20223;-92
2022/11/16 05:56:02;;;;;;;15.02;2.20;;;10.80;99.90;;;;;;5014805;28;20172;-93
2022/11/16 05:58:27;;;;;;;10.63;2.40;;;10.80;99.90;;;;;;5014166;28;20540;-91
2022/11/16 06:00:53;;;;;;;3.90;1.77;;;10.80;99.90;;;;;;5014631;28;20187;-92
2022/11/16 06:03:18;;;;;;;7.07;1.48;;;10.90;99.90;;;;;;5015025;28;20171;-90
2022/11/16 06:05:44;;;;;;;13.10;2.60;;;10.90;99.90;;;;;;5015086;28;20207;-92
2022/11/16 06:08:10;;;;;;;5.25;1.70;;;10.80;99.90;;;;;;5013577;28;20192;-92
2022/11/16 06:10:38;;;;;;;6.93;1.67;;;10.70;99.90;;;;;;5013805;28;20176;-91
2022/11/16 06:13:03;;;;;;;3.35;1.60;;;10.50;99.90;;;;;;5014267;28;20156;-92
2022/11/16 06:15:29;;;;;;;5.30;1.80;;;10.50;99.90;;;;;;5014518;28;20626;-92
2022/11/16 06:17:55;;;;;;;12.13;1.95;;;10.60;99.90;;;;;;5015053;28;20192;-92
2022/11/16 06:20:20;;;;;;;18.13;3.05;;;10.50;99.90;;;;;;5014171;28;20177;-91
2022/11/16 06:22:46;;;;;;;9.98;2.00;;;10.50;99.90;;;;;;5015388;28;20234;-92
2022/11/16 06:25:11;;;;;;;9.55;1.95;;;10.50;99.90;;;;;;5014030;28;20728;-92
2022/11/16 06:27:40;;;;;;;15.30;1.95;;;10.40;99.90;;;;;;5014806;28;20172;-92
2022/11/16 06:30:06;;;;;;;5.90;2.08;;;10.40;99.90;;;;;;5014248;28;20185;-91
2022/11/16 06:32:32;;;;;;;8.48;2.33;;;10.40;99.90;;;;;;5014170;28;20255;-92
2022/11/16 06:34:57;;;;;;;12.05;2.08;;;10.40;99.90;;;;;;5014510;28;20188;-91
2022/11/16 06:37:23;;;;;;;5.65;1.90;;;10.30;99.90;;;;;;5014025;28;20195;-92
2022/11/16 06:39:49;;;;;;;13.93;2.03;;;10.30;99.90;;;;;;5014429;28;20231;-92
2022/11/16 06:42:14;;;;;;;9.98;2.45;;;10.40;99.90;;;;;;5017554;28;20303;-91
2022/11/16 06:44:40;;;;;;;14.85;2.13;;;10.40;99.90;;;;;;5016116;28;20284;-92
2022/11/16 06:47:05;;;;;;;12.25;2.47;;;10.50;99.90;;;;;;5016874;28;20290;-91
2022/11/16 06:49:31;;;;;;;8.13;2.08;;;10.20;99.90;;;;;;5013659;28;20241;-91
2022/11/16 06:51:56;;;;;;;10.45;2.72;;;10.30;99.90;;;;;;5014347;28;20180;-91
2022/11/16 06:54:22;;;;;;;11.88;2.10;;;10.30;99.90;;;;;;5014156;28;20165;-92
2022/11/16 06:56:48;;;;;;;12.20;3.47;;;10.20;99.90;;;;;;5016268;28;20200;-92
2022/11/16 06:59:13;;;;;;;13.55;2.45;;;10.20;99.90;;;;;;5013742;28;20540;-92
2022/11/16 07:01:39;;;;;;;8.27;1.65;;;10.30;99.90;;;;;;5014188;28;20196;-92
2022/11/16 07:04:04;;;;;;;16.63;2.20;;;10.40;99.90;;;;;;5014340;28;20604;-81
2022/11/16 07:08:56;;;;;;;6.82;2.40;;;10.30;99.90;;;;;;5013746;28;20188;-90
2022/11/16 07:11:21;;;;;;;10.13;2.75;;;10.30;99.90;;;;;;5015712;28;20200;-93
2022/11/16 07:13:49;;;;;;;3.42;2.10;;;10.20;99.90;;;;;;5013921;28;20567;-88
2022/11/16 07:16:15;;;;;;;5.20;1.88;;;10.30;99.90;;;;;;5015314;28;20179;-91
2022/11/16 07:18:41;;;;;;;10.32;2.63;;;10.30;99.90;;;;;;5014811;28;20188;-87
2022/11/16 07:21:11;;;;;;;7.40;3.00;;;10.20;99.90;;;;;;5013634;28;20169;-89
2022/11/16 07:23:37;;;;;;;10.27;2.72;;;10.20;99.90;;;;;;5017342;28;20172;-92
2022/11/16 07:26:05;;;;;;;7.38;2.10;;;10.20;99.90;;;;;;5017019;28;20287;-95
2022/11/16 07:28:31;;;;;;;6.38;1.83;;;10.30;99.90;;;;;;5017800;28;20713;-95
2022/11/16 07:31:04;;;;;;;13.95;2.47;;;10.40;99.90;;;;;;5017901;28;20173;-91
2022/11/16 07:33:30;;;;;;;8.45;2.90;;;10.40;99.90;;;;;;5016904;28;20179;-93
2022/11/16 07:36:01;;;;;;;12.15;3.58;;;10.50;99.90;;;;;;5017342;28;20168;-91
2022/11/16 07:38:27;;;;;;;6.82;2.80;;;10.50;99.90;;;;;;5017255;28;20204;-93
2022/11/16 07:40:52;;;;;;;5.30;2.40;;;10.50;99.90;;;;;;5017871;28;20199;-90
2022/11/16 07:43:18;;;;;;;12.73;2.35;;;10.70;99.90;;;;;;5017977;28;20246;-93
2022/11/16 07:45:43;;;;;;;10.68;2.25;;;10.60;99.90;;;;;;5016377;28;20215;-94
2022/11/16 07:48:09;;;;;;;12.23;2.55;;;10.40;99.90;;;;;;5016834;28;20167;-90
2022/11/16 07:50:35;;;;;;;9.90;2.45;;;10.40;99.90;;;;;;5017163;28;20641;-94
2022/11/16 07:53:00;;;;;;;10.70;3.28;;;10.60;99.90;;;;;;5018049;28;20165;-92
2022/11/16 07:55:30;;;;;;;7.63;2.03;;;10.60;99.90;;;;;;5016979;28;20206;-91
2022/11/16 07:57:57;;;;;;;10.45;2.60;;;10.70;99.90;;;;;;5017336;28;20173;-94
2022/11/16 08:00:23;;;;;;;5.68;2.15;;;10.70;99.90;;;;;;5015446;28;20255;-93
2022/11/16 08:02:49;;;;;;;9.60;2.45;;;10.70;99.90;;;;;;5016575;28;20188;-93
2022/11/16 08:05:15;;;;;;;8.65;2.60;;;10.70;99.90;;;;;;5015312;28;20299;-92
2022/11/16 08:07:40;;;;;;;7.72;1.60;;;10.80;99.90;;;;;;5015414;28;20171;-93
2022/11/16 08:10:06;;;;;;;9.88;2.40;;;10.90;99.90;;;;;;5016707;28;20193;-91
2022/11/16 08:12:32;;;;;;;5.60;1.60;;;10.70;99.90;;;;;;5016605;28;20257;-94
2022/11/16 08:14:57;;;;;;;10.48;2.30;;;10.60;99.90;;;;;;5016783;28;20165;-92
2022/11/16 08:17:23;;;;;;;7.22;1.60;;;10.60;99.90;;;;;;5016055;28;20176;-94
2022/11/16 08:19:49;;;;;;;4.03;1.95;;;10.70;99.90;;;;;;5015925;28;20185;-90
2022/11/16 08:22:14;;;;;;;9.77;2.08;;;10.80;99.90;;;;;;5015199;28;20503;-84
2022/11/16 08:24:40;;;;;;;12.23;1.77;;;10.70;99.90;;;;;;5014097;28;20655;-86
2022/11/16 08:27:05;;;;;;;7.70;1.85;;;10.80;99.90;;;;;;5014920;28;20175;-88
2022/11/16 08:29:31;;;;;;;11.23;1.98;;;10.90;99.90;;;;;;5015058;28;20662;-91
2022/11/16 08:31:57;;;;;;;9.00;2.03;;;10.90;99.90;;;;;;5015301;28;20169;-94
2022/11/16 08:34:23;;;;;;;4.82;1.20;;;10.80;99.90;;;;;;5013547;28;20165;-92
2022/11/16 08:36:48;;;;;;;8.82;1.67;;;10.90;99.90;;;;;;5016837;28;20195;-94
2022/11/16 08:39:14;;;;;;;11.57;2.05;;;10.80;99.90;;;;;;5015518;28;20668;-86
2022/11/16 08:41:41;;;;;;;3.67;2.35;;;10.70;99.90;;;;;;5015368;28;20172;-90
2022/11/16 08:44:07;;;;;;;13.95;1.90;;;10.90;99.90;;;;;;5018620;28;20161;-87
2022/11/16 08:46:32;;;;;;;7.68;2.28;;;10.90;99.90;;;;;;5015214;28;20290;-92
2022/11/16 08:48:59;;;;;;;8.27;1.60;;;10.80;99.90;;;;;;5015494;28;20647;-92
2022/11/16 08:51:25;;;;;;;8.13;1.73;;;11.00;99.90;;;;;;5014908;28;20201;-92
2022/11/16 08:53:58;;;;;;;6.57;1.40;;;11.10;99.90;;;;;;5015295;28;20173;-92
2022/11/16 08:56:25;;;;;;;6.03;1.50;;;11.10;99.90;;;;;;5013989;28;20577;-93
2022/11/16 08:58:52;;;;;;;7.35;2.00;;;11.20;99.90;;;;;;5014424;28;20188;-91
2022/11/16 09:01:20;;;;;;;4.72;2.15;;;11.10;99.90;;;;;;5015315;28;20168;-93
2022/11/16 09:03:46;;;;;;;10.40;1.63;;;11.20;99.90;;;;;;5015641;28;20169;-91
2022/11/16 09:06:12;;;;;;;5.50;1.75;;;11.10;99.90;;;;;;5013902;28;20219;-86
2022/11/16 09:08:40;;;;;;;9.98;1.35;;;11.30;99.90;;;;;;5013082;28;20724;-92
2022/11/16 09:11:08;;;;;;;6.90;1.80;;;11.20;99.90;;;;;;5015124;28;20539;-92
2022/11/16 09:13:33;;;;;;;9.95;2.10;;;11.30;99.90;;;;;;5014683;28;20194;-87
2022/11/16 09:16:00;;;;;;;8.55;2.28;;;11.20;99.90;;;;;;5015256;28;20259;-92
2022/11/16 09:18:26;;;;;;;17.05;2.63;;;11.20;99.90;;;;;;5015858;28;20267;-84
2022/11/16 09:20:52;;;;;;;6.78;1.40;;;11.40;99.90;;;;;;5015863;28;20164;-90
2022/11/16 09:23:17;;;;;;;6.00;2.20;;;11.50;99.90;;;;;;5014962;28;20630;-91
2022/11/16 09:25:44;;;;;;;8.95;1.90;;;11.70;99.90;;;;;;5013928;28;20250;-91
2022/11/16 09:28:10;;;;;;;7.13;2.08;;;11.80;99.90;;;;;;5014795;28;20157;-91
2022/11/16 09:30:36;;;;;;;6.32;1.20;;;11.90;99.90;;;;;;5014883;28;20625;-89
2022/11/16 09:33:02;;;;;;;5.20;1.80;;;12.00;99.90;;;;;;5014484;28;20179;-93
2022/11/16 09:35:27;;;;;;;9.25;1.55;;;12.10;99.90;;;;;;5013993;28;20739;-92
2022/11/16 09:37:54;;;;;;;14.98;2.78;;;12.00;99.90;;;;;;5014309;28;20234;-86
2022/11/16 09:40:19;;;;;;;5.65;1.90;;;11.90;99.90;;;;;;5015392;28;20605;-90
2022/11/16 09:42:57;;;;;;;7.75;1.55;;;11.90;99.90;;;;;;5014046;28;20168;-90
2022/11/16 09:45:32;;;;;;;8.90;1.35;;;12.10;99.90;;;;;;5013836;28;20207;-91
2022/11/16 09:48:01;;;;;;;8.70;1.48;;;12.10;99.90;;;;;;5012875;28;20168;-87
2022/11/16 09:50:37;;;;;;;4.50;1.52;;;12.10;99.90;;;;;;5013539;28;20674;-87
2022/11/16 09:53:21;;;;;;;4.47;1.65;;;12.10;99.90;;;;;;5014441;28;20538;-87
2022/11/16 09:55:51;;;;;;;4.80;1.42;;;12.30;99.90;;;;;;5012819;28;20550;-90
2022/11/16 09:58:27;;;;;;;3.25;1.23;;;12.30;99.90;;;;;;5012283;28;20185;-79
2022/11/16 10:01:04;;;;;;;7.47;2.38;;;12.30;99.90;;;;;;5013839;28;20172;-87
2022/11/16 10:03:39;;;;;;;10.00;1.67;;;12.30;99.90;;;;;;5013740;28;20196;-86
2022/11/16 10:06:06;;;;;;;3.33;1.40;;;12.30;99.90;;;;;;5012279;28;20199;-88
2022/11/16 10:08:42;;;;;;;7.57;1.92;;;12.40;99.90;;;;;;5012903;28;20707;-86
2022/11/16 10:11:26;;;;;;;11.50;1.98;;;12.40;99.90;;;;;;5013919;28;20282;-82
2022/11/16 10:14:04;;;;;;;1.85;1.17;;;12.40;99.90;;;;;;5012247;28;20179;-80
2022/11/16 10:16:38;;;;;;;9.25;1.52;;;12.50;99.90;;;;;;5013416;28;20586;-85
2022/11/16 10:19:11;;;;;;;10.23;1.88;;;12.70;99.90;;;;;;5011917;28;20680;-92
2022/11/16 10:22:13;;;;;;;10.32;1.77;;;12.80;99.90;;;;;;5012228;28;20176;-91
2022/11/16 10:24:58;;;;;;;8.38;2.28;;;12.90;99.90;;;;;;5014355;28;20180;-86
2022/11/16 10:27:39;;;;;;;19.02;2.10;;;12.80;99.90;;;;;;5020733;28;20571;-89
2022/11/16 10:30:16;;;;;;;2.90;1.35;;;12.80;99.90;;;;;;5028979;28;20239;-87
2022/11/16 10:33:00;;;;;;;2.20;1.10;;;12.90;99.90;;;;;;5028840;28;20172;-79
2022/11/16 10:35:39;;;;;;;7.10;2.15;;;12.90;99.90;;;;;;5024985;28;20181;-83
2022/11/16 10:38:14;;;;;;;7.03;1.83;;;12.70;99.90;;;;;;5014830;28;20198;-84
2022/11/16 10:40:41;;;;;;;7.18;2.03;;;12.60;99.90;;;;;;5015120;28;20176;-90
2022/11/16 10:43:16;;;;;;;4.45;1.42;;;12.60;99.90;;;;;;5012645;28;20624;-82
2022/11/16 10:45:56;;;;;;;5.88;1.33;;;12.40;99.90;;;;;;5011677;28;20221;-93
2022/11/16 10:48:41;;;;;;;14.75;2.30;;;12.50;99.90;;;;;;5013619;28;20187;-85
2022/11/16 10:51:08;;;;;;;7.13;1.40;;;12.60;99.90;;;;;;5013486;28;20173;-83
2022/11/16 10:53:40;;;;;;;5.28;1.70;;;12.70;99.90;;;;;;5013617;28;20180;-81
2022/11/16 10:56:24;;;;;;;6.88;1.42;;;12.90;99.90;;;;;;5012878;28;20647;-90
2022/11/16 10:58:56;;;;;;;5.65;1.27;;;13.20;99.90;;;;;;5017052;28;20189;-90
2022/11/16 11:01:39;;;;;;;6.05;1.17;;;13.40;99.90;;;;;;5016821;28;20173;-80
2022/11/16 11:04:15;;;;;;;11.80;1.40;;;13.50;99.90;;;;;;5030148;28;20184;-94
2022/11/16 11:06:41;;;;;;;6.63;1.55;;;13.60;99.90;;;;;;5016894;28;20234;-91
2022/11/16 11:09:35;;;;;;;4.20;1.63;;;13.60;99.90;;;;;;5016552;28;20180;-87
2022/11/16 11:15:09;;;;;;;9.10;1.60;;;14.10;99.90;;;;;;5038000;28;20167;-89
2022/11/16 11:17:40;;;;;;;7.78;1.48;;;14.10;99.90;;;;;;5038989;28;20574;-91
2022/11/16 11:20:23;;;;;;;7.00;1.83;;;14.00;99.90;;;;;;5039806;28;20188;-83
2022/11/16 11:22:57;;;;;;;8.80;2.50;;;14.10;99.90;;;;;;5044456;28;20206;-94
2022/11/16 11:25:25;;;;;;;12.27;2.25;;;14.10;99.90;;;;;;5039033;28;20571;-92
2022/11/16 11:28:02;;;;;;;10.43;1.48;;;14.00;99.90;;;;;;5040334;28;20167;-91
2022/11/16 11:30:31;;;;;;;7.93;1.33;;;13.90;99.90;;;;;;5045706;28;20172;-81
2022/11/16 11:33:22;;;;;;;6.65;1.40;;;13.60;99.90;;;;;;5055709;28;20242;-85
2022/11/16 11:36:21;;;;;;;7.13;1.23;;;13.40;99.90;;;;;;5059679;28;20175;-83
2022/11/16 11:39:11;;;;;;;4.90;1.25;;;13.40;99.90;;;;;;5055112;28;20231;-79
2022/11/16 11:41:43;;;;;;;9.90;1.63;;;13.40;99.90;;;;;;5057310;28;20246;-90
2022/11/16 11:44:18;;;;;;;7.38;1.88;;;13.50;99.90;;;;;;5039648;28;20144;-87
2022/11/16 11:46:54;;;;;;;5.85;1.50;;;13.40;99.90;;;;;;5057471;28;20214;-81
2022/11/16 11:49:30;;;;;;;9.10;1.50;;;13.40;99.90;;;;;;5024995;28;20172;-84
2022/11/16 11:52:05;;;;;;;17.20;1.58;;;13.50;99.90;;;;;;5047548;28;20655;-93
2022/11/16 11:54:53;;;;;;;3.65;1.30;;;13.70;99.90;;;;;;5047420;28;20171;-87
2022/11/16 11:57:21;;;;;;;5.63;1.65;;;14.00;99.90;;;;;;5050614;28;20221;-84
2022/11/16 11:59:51;;;;;;;7.60;1.65;;;14.00;99.90;;;;;;5048155;28;20195;-85
2022/11/16 12:02:29;;;;;;;2.63;1.25;;;14.00;99.90;;;;;;5041092;28;20199;-89
2022/11/16 12:05:21;;;;;;;12.20;2.00;;;14.10;99.90;;;;;;5043681;28;20180;-79
2022/11/16 12:08:27;;;;;;;7.13;1.40;;;14.00;99.90;;;;;;5049724;28;20164;-78
2022/11/16 12:11:16;;;;;;;2.13;0.90;;;14.00;99.90;;;;;;5045997;28;20533;-84
2022/11/16 12:14:08;;;;;;;6.15;1.45;;;13.90;99.90;;;;;;5037908;28;20170;-85
2022/11/16 12:17:15;;;;;;;6.82;1.42;;;13.90;99.90;;;;;;5038631;28;20187;-79
2022/11/16 12:19:47;;;;;;;4.28;1.20;;;13.80;99.90;;;;;;5037753;28;20202;-82
2022/11/16 12:22:22;;;;;;;10.65;1.30;;;13.80;99.90;;;;;;5041385;28;20663;-88
2022/11/16 12:25:09;;;;;;;4.38;1.30;;;13.90;99.90;;;;;;5038913;28;20167;-90
2022/11/16 12:27:50;;;;;;;5.75;1.85;;;13.90;99.90;;;;;;5039090;28;20203;-91
2022/11/16 12:30:22;;;;;;;6.03;1.30;;;14.00;99.90;;;;;;5030904;28;20172;-82
2022/11/16 12:33:09;;;;;;;5.65;1.38;;;13.70;99.90;;;;;;5008172;28;20255;-95
2022/11/16 12:36:07;;;;;;;7.32;1.20;;;13.60;99.90;;;;;;4993026;28;20179;-83
2022/11/16 12:38:58;;;;;;;6.75;1.52;;;13.60;99.90;;;;;;4992849;28;20232;-81
2022/11/16 12:41:38;;;;;;;3.47;1.33;;;13.70;99.90;;;;;;5009655;28;20177;-81
2022/11/16 12:44:22;;;;;;;3.42;1.25;;;13.90;99.90;;;;;;5011380;28;20587;-81
2022/11/16 12:47:02;;;;;;;24.60;2.35;;;13.80;99.90;;;;;;5013523;28;20216;-80
2022/11/16 12:49:39;;;;;;;3.90;1.60;;;13.50;99.90;;;;;;5011711;28;20635;-81
2022/11/16 12:52:26;;;;;;;7.18;1.50;;;13.60;99.90;;;;;;5021178;28;20241;-92
2022/11/16 12:55:24;;;;;;;4.82;2.28;;;13.70;99.90;;;;;;5036652;28;20164;-91
2022/11/16 12:58:21;;;;;;;4.93;1.58;;;13.80;99.90;;;;;;5036002;28;20164;-92
2022/11/16 13:01:17;;;;;;;10.50;2.40;;;14.10;99.90;;;;;;5041562;28;20166;-91
2022/11/16 13:03:59;;;;;;;5.55;1.40;;;14.20;99.90;;;;;;5054320;28;20244;-92
2022/11/16 13:07:03;;;;;;;2.30;1.30;;;14.30;99.90;;;;;;5054695;28;20198;-85
2022/11/16 13:09:36;;;;;;;7.35;1.60;;;14.50;99.90;;;;;;5029780;28;20195;-91
2022/11/16 13:12:13;;;;;;;6.35;1.75;;;14.60;99.90;;;;;;5037187;28;20270;-90
2022/11/16 13:14:49;;;;;;;6.15;2.28;;;14.80;99.90;;;;;;5043250;28;20175;-95
2022/11/16 13:17:21;;;;;;;8.90;1.80;;;15.00;99.90;;;;;;5036191;28;20239;-94
2022/11/16 13:20:06;;;;;;;8.30;1.90;;;14.90;99.90;;;;;;5035579;28;20191;-88
2022/11/16 13:22:34;;;;;;;8.55;1.45;;;14.60;99.90;;;;;;5034581;28;20226;-94
2022/11/16 13:25:23;;;;;;;9.32;2.22;;;14.60;99.90;;;;;;5035538;28;20210;-88
2022/11/16 13:28:05;;;;;;;7.55;1.60;;;14.70;99.90;;;;;;5037256;28;20195;-94
2022/11/16 13:31:18;;;;;;;8.40;1.45;;;14.70;99.90;;;;;;5040668;28;20251;-90
2022/11/16 13:33:49;;;;;;;7.50;2.17;;;14.70;99.90;;;;;;5055574;28;20198;-82
2022/11/16 13:37:02;;;;;;;5.63;1.40;;;14.60;99.90;;;;;;5058341;28;20259;-88
2022/11/16 13:39:54;;;;;;;4.50;1.30;;;14.50;99.90;;;;;;5053459;28;20225;-95
2022/11/16 13:43:07;;;;;;;14.93;1.90;;;14.30;99.90;;;;;;5036666;28;20173;-95
2022/11/16 13:45:36;;;;;;;14.52;2.05;;;14.30;99.90;;;;;;5023915;28;20266;-86
2022/11/16 13:48:25;;;;;;;22.75;2.58;;;14.00;99.90;;;;;;5036190;28;20215;-87
2022/11/16 13:50:57;;;;;;;7.13;1.77;;;14.00;99.90;;;;;;5031108;28;20172;-79
2022/11/16 13:53:29;;;;;;;4.53;1.30;;;14.10;99.90;;;;;;5014683;28;20176;-95
2022/11/16 13:56:00;;;;;;;8.77;2.17;;;14.30;99.90;;;;;;5033092;28;20171;-90
2022/11/16 13:58:28;;;;;;;8.02;1.73;;;14.30;99.90;;;;;;5020387;28;20192;-94
2022/11/16 14:01:13;;;;;;;12.18;1.85;;;14.40;99.90;;;;;;5014468;28;20172;-90
2022/11/16 14:03:43;;;;;;;7.97;1.65;;;14.40;99.90;;;;;;5033112;28;20225;-81
2022/11/16 14:06:11;;;;;;;13.05;1.67;;;14.10;99.90;;;;;;5035143;28;20211;-80